Time;durP1;ratioP1;P1;durP2;ratioP2;P2;SDS_P1;SDS_P2;PMS_P1;PMS_P2;Temp;Humidity;BMP_temperature;BMP_pressure;BME280_temperature;BME280_humidity;BME280_pressure;Samples;Min_cycle;Max_cycle;Signal;HPM_P1;HPM_P2
2021/08/26 00:00:28;;;;;;;12.68;6.30;;;13.90;99.90;;;;;;4986318;28;20105;-77
2021/08/26 00:05:51;;;;;;;29.00;11.60;;;13.90;99.90;;;;;;4986966;28;20053;-77
2021/08/26 00:08:20;;;;;;;31.65;11.80;;;13.90;99.90;;;;;;4957937;28;20054;-77
2021/08/26 00:10:48;;;;;;;33.10;12.88;;;13.90;99.90;;;;;;4975959;28;20078;-77
2021/08/26 00:13:15;;;;;;;35.55;13.82;;;13.90;99.90;;;;;;4969560;28;20061;-77
2021/08/26 00:15:45;;;;;;;23.30;10.65;;;13.90;99.90;;;;;;4969217;28;20050;-77
2021/08/26 00:18:15;;;;;;;17.15;7.60;;;14.00;99.90;;;;;;4984274;28;20054;-76
2021/08/26 00:20:44;;;;;;;10.10;4.57;;;14.00;99.90;;;;;;4983071;28;20046;-77
2021/08/26 00:23:11;;;;;;;8.57;3.67;;;14.00;99.90;;;;;;5000420;28;20644;-77
2021/08/26 00:25:37;;;;;;;5.40;2.38;;;14.10;99.90;;;;;;5016477;28;20042;-75
2021/08/26 00:28:04;;;;;;;4.90;2.35;;;14.00;99.90;;;;;;4984320;28;20490;-77
2021/08/26 00:30:31;;;;;;;4.90;3.05;;;14.00;99.90;;;;;;4982994;28;20198;-77
2021/08/26 00:32:58;;;;;;;11.10;5.68;;;14.00;99.90;;;;;;5000612;28;20062;-77
2021/08/26 00:35:25;;;;;;;7.82;5.00;;;13.80;99.90;;;;;;4983440;28;20054;-77
2021/08/26 00:37:51;;;;;;;11.77;6.32;;;13.60;99.90;;;;;;4988010;28;20042;-76
2021/08/26 00:40:18;;;;;;;10.77;6.88;;;13.50;99.90;;;;;;5013975;28;20522;-77
2021/08/26 00:42:45;;;;;;;13.32;8.25;;;13.50;99.90;;;;;;5003671;28;20053;-77
2021/08/26 00:45:12;;;;;;;12.05;7.38;;;13.40;99.90;;;;;;5002704;28;20061;-77
2021/08/26 00:47:43;;;;;;;12.38;7.60;;;13.50;99.90;;;;;;5012406;28;20047;-77
2021/08/26 00:50:10;;;;;;;11.85;7.07;;;13.50;99.90;;;;;;4986022;28;20055;-77
2021/08/26 00:52:39;;;;;;;13.10;7.28;;;13.50;99.90;;;;;;4951974;28;20057;-77
2021/08/26 00:55:07;;;;;;;10.68;6.97;;;13.50;99.90;;;;;;4985298;28;20049;-77
2021/08/26 00:57:37;;;;;;;12.02;8.00;;;13.50;99.90;;;;;;4973900;28;20038;-77
2021/08/26 01:00:09;;;;;;;12.40;8.80;;;13.50;99.90;;;;;;4985711;28;20050;-77
2021/08/26 01:02:44;;;;;;;13.98;8.70;;;13.50;99.90;;;;;;5001570;28;20108;-77
2021/08/26 01:05:20;;;;;;;;;;;13.60;99.90;;;;;;4985563;28;20042;-77
2021/08/26 01:07:57;;;;;;;12.98;8.05;;;13.50;99.90;;;;;;4990238;28;20299;-77
2021/08/26 01:10:25;;;;;;;13.73;7.35;;;13.40;99.90;;;;;;4988632;28;20054;-77
2021/08/26 01:12:56;;;;;;;12.32;7.45;;;13.40;99.90;;;;;;4954217;28;20050;-75
2021/08/26 01:15:27;;;;;;;14.23;7.88;;;13.40;99.90;;;;;;4987811;28;20056;-77
2021/08/26 01:17:55;;;;;;;11.38;6.15;;;13.40;99.90;;;;;;4984504;28;20514;-77
2021/08/26 01:20:22;;;;;;;10.48;6.85;;;13.30;99.90;;;;;;4985349;28;20061;-77
2021/08/26 01:22:49;;;;;;;11.50;7.25;;;13.40;99.90;;;;;;5000686;28;20218;-77
2021/08/26 01:25:19;;;;;;;11.55;7.15;;;13.40;99.90;;;;;;5007098;28;20060;-78
2021/08/26 01:28:06;;;;;;;9.63;6.53;;;13.40;99.90;;;;;;5004535;28;20046;-78
2021/08/26 01:30:37;;;;;;;11.20;6.97;;;13.40;99.90;;;;;;5003692;28;20022;-78
2021/08/26 01:33:05;;;;;;;10.45;6.20;;;13.40;99.90;;;;;;4987547;28;20050;-78
2021/08/26 01:35:32;;;;;;;11.40;6.55;;;13.40;99.90;;;;;;5004143;28;20054;-78
2021/08/26 01:37:59;;;;;;;11.25;5.82;;;13.30;99.90;;;;;;5001119;28;20527;-78
2021/08/26 01:40:40;;;;;;;10.52;6.07;;;13.30;99.90;;;;;;4986143;28;20576;-78
2021/08/26 01:43:11;;;;;;;10.10;5.40;;;13.30;99.90;;;;;;4998426;28;20050;-77
2021/08/26 01:45:39;;;;;;;11.18;5.85;;;13.30;99.90;;;;;;4968591;28;20054;-77
2021/08/26 01:48:06;;;;;;;13.18;6.35;;;13.30;99.90;;;;;;4985098;28;20415;-78
2021/08/26 01:50:33;;;;;;;11.20;7.07;;;13.30;99.90;;;;;;4968255;28;20315;-77
2021/08/26 01:52:59;;;;;;;12.50;8.30;;;13.40;99.90;;;;;;5000264;28;20081;-77
2021/08/26 01:55:26;;;;;;;12.43;8.25;;;13.40;99.90;;;;;;4969401;28;20287;-77
2021/08/26 01:57:53;;;;;;;16.40;8.40;;;13.40;99.90;;;;;;4998416;28;20049;-77
2021/08/26 02:00:20;;;;;;;16.25;8.52;;;13.30;99.90;;;;;;4973282;28;20050;-77
2021/08/26 02:02:47;;;;;;;19.88;9.38;;;13.30;99.90;;;;;;5002301;28;20169;-77
2021/08/26 02:05:14;;;;;;;19.77;9.80;;;13.40;99.90;;;;;;4984400;28;20041;-77
2021/08/26 02:07:48;;;;;;;15.88;9.55;;;13.30;99.90;;;;;;4989367;28;20077;-77
2021/08/26 02:10:15;;;;;;;19.02;10.00;;;13.30;99.90;;;;;;4999614;28;20081;-78
2021/08/26 02:12:42;;;;;;;21.00;10.20;;;13.30;99.90;;;;;;5006198;28;20042;-77
2021/08/26 02:15:10;;;;;;;18.38;9.38;;;13.30;99.90;;;;;;5022719;28;20211;-77
2021/08/26 02:17:37;;;;;;;16.98;9.88;;;13.30;99.90;;;;;;5019994;28;20042;-77
2021/08/26 02:20:06;;;;;;;19.33;9.55;;;13.30;99.90;;;;;;4986402;28;20133;-77
2021/08/26 02:22:34;;;;;;;23.48;11.20;;;13.30;99.90;;;;;;4999009;28;20355;-77
2021/08/26 02:25:01;;;;;;;29.17;10.70;;;13.40;99.90;;;;;;5015972;28;20038;-77
2021/08/26 02:27:28;;;;;;;22.45;11.02;;;13.30;99.90;;;;;;5009128;28;20216;-77
2021/08/26 02:29:54;;;;;;;19.90;9.70;;;13.30;99.90;;;;;;4989819;28;20624;-78
2021/08/26 02:32:21;;;;;;;21.85;9.65;;;13.30;99.90;;;;;;4966516;28;20050;-77
2021/08/26 02:34:48;;;;;;;18.52;8.63;;;13.20;99.90;;;;;;4982474;28;20462;-77
2021/08/26 02:37:15;;;;;;;13.68;5.80;;;13.20;99.90;;;;;;4967354;28;20490;-78
2021/08/26 02:39:41;;;;;;;11.73;5.30;;;13.10;99.90;;;;;;4987326;28;20038;-77
2021/08/26 02:42:08;;;;;;;13.40;5.38;;;12.90;99.90;;;;;;4970063;28;20042;-77
2021/08/26 02:44:35;;;;;;;16.95;5.97;;;13.00;99.90;;;;;;4987318;28;20054;-78
2021/08/26 02:47:02;;;;;;;11.85;5.93;;;12.90;99.90;;;;;;4953618;28;20529;-78
2021/08/26 02:49:29;;;;;;;16.88;5.80;;;12.90;99.90;;;;;;4986511;28;20485;-78
2021/08/26 02:51:55;;;;;;;14.02;6.03;;;12.90;99.90;;;;;;5019704;28;20122;-78
2021/08/26 02:54:22;;;;;;;16.27;6.57;;;12.90;99.90;;;;;;4987515;28;20090;-78
2021/08/26 02:56:49;;;;;;;17.92;5.95;;;12.90;99.90;;;;;;4968962;28;20451;-78
2021/08/26 02:59:15;;;;;;;18.00;6.00;;;12.90;99.90;;;;;;4969993;28;20046;-78
2021/08/26 03:01:42;;;;;;;14.23;5.68;;;12.90;99.90;;;;;;4969040;28;20050;-78
2021/08/26 03:04:09;;;;;;;14.60;6.50;;;13.00;99.90;;;;;;4986199;28;20065;-77
2021/08/26 03:06:36;;;;;;;13.52;6.88;;;12.90;99.90;;;;;;4986174;28;20569;-78
2021/08/26 03:09:03;;;;;;;22.55;6.68;;;12.90;99.90;;;;;;4974811;28;20549;-78
2021/08/26 03:11:29;;;;;;;18.17;6.78;;;12.90;99.90;;;;;;4989904;28;20104;-78
2021/08/26 03:13:56;;;;;;;20.67;7.45;;;12.90;99.90;;;;;;4971637;28;20050;-77
2021/08/26 03:16:23;;;;;;;19.52;6.75;;;12.90;99.90;;;;;;4983178;28;20050;-78
2021/08/26 03:18:50;;;;;;;18.88;7.50;;;12.90;99.90;;;;;;4967527;28;20578;-77
2021/08/26 03:21:17;;;;;;;27.92;10.40;;;12.80;99.90;;;;;;4980199;28;20491;-78
2021/08/26 03:23:44;;;;;;;22.23;9.57;;;12.90;99.90;;;;;;4991633;28;20050;-77
2021/08/26 03:26:10;;;;;;;19.05;9.57;;;12.90;99.90;;;;;;4984116;28;20049;-77
2021/08/26 03:28:37;;;;;;;20.20;9.90;;;12.90;99.90;;;;;;4985647;28;20050;-77
2021/08/26 03:31:05;;;;;;;22.27;10.05;;;12.90;99.90;;;;;;4985124;28;20043;-77
2021/08/26 03:33:32;;;;;;;21.33;11.95;;;12.90;99.90;;;;;;4985594;28;20109;-77
2021/08/26 03:36:00;;;;;;;25.98;11.95;;;13.00;99.90;;;;;;4968542;28;20111;-77
2021/08/26 03:38:27;;;;;;;28.08;12.73;;;13.00;99.90;;;;;;4979595;28;20097;-77
2021/08/26 03:40:54;;;;;;;31.60;12.90;;;12.90;99.90;;;;;;4967729;28;20100;-77
2021/08/26 03:43:21;;;;;;;31.30;14.02;;;13.00;99.90;;;;;;4968835;28;20124;-77
2021/08/26 03:45:48;;;;;;;35.80;14.48;;;13.00;99.90;;;;;;4972726;28;20111;-77
2021/08/26 03:48:17;;;;;;;38.03;14.95;;;13.10;99.90;;;;;;4971583;28;20084;-77
2021/08/26 03:50:43;;;;;;;24.42;11.32;;;13.10;99.90;;;;;;4968628;28;20080;-77
2021/08/26 03:53:10;;;;;;;26.20;12.77;;;13.10;99.90;;;;;;5004162;28;20506;-76
2021/08/26 03:55:38;;;;;;;32.65;13.65;;;13.10;99.90;;;;;;4968042;28;20057;-77
2021/08/26 03:58:05;;;;;;;27.02;12.30;;;13.00;99.90;;;;;;4984434;28;20046;-77
2021/08/26 04:00:32;;;;;;;38.00;14.23;;;13.10;99.90;;;;;;4951804;28;20043;-77
2021/08/26 04:02:59;;;;;;;32.38;14.13;;;13.00;99.90;;;;;;4949003;28;20054;-77
2021/08/26 04:05:26;;;;;;;30.05;12.35;;;13.00;99.90;;;;;;4980021;28;20050;-77
2021/08/26 04:07:52;;;;;;;35.80;15.88;;;13.00;99.90;;;;;;4966128;28;20046;-76
2021/08/26 04:10:20;;;;;;;32.30;15.23;;;12.90;99.90;;;;;;4986093;28;20266;-77
2021/08/26 04:12:46;;;;;;;32.28;13.98;;;13.00;99.90;;;;;;4937468;28;20487;-77
2021/08/26 04:15:13;;;;;;;32.22;14.60;;;12.90;99.90;;;;;;4964561;28;20069;-77
2021/08/26 04:17:40;;;;;;;35.67;14.88;;;12.90;99.90;;;;;;4948769;28;20049;-76
2021/08/26 04:20:08;;;;;;;39.65;15.98;;;12.90;99.90;;;;;;4955790;28;20480;-76
2021/08/26 04:22:35;;;;;;;33.58;16.38;;;13.00;99.90;;;;;;4979082;28;20199;-77
2021/08/26 04:25:02;;;;;;;37.47;17.85;;;13.00;99.90;;;;;;4983788;28;20042;-77
2021/08/26 04:27:32;;;;;;;34.10;16.63;;;13.10;99.90;;;;;;4987821;28;20499;-76
2021/08/26 04:29:59;;;;;;;36.97;17.85;;;13.10;99.90;;;;;;4970082;28;20061;-76
2021/08/26 04:32:26;;;;;;;42.03;19.30;;;13.00;99.90;;;;;;4955682;28;20130;-77
2021/08/26 04:34:52;;;;;;;41.53;20.00;;;13.00;99.90;;;;;;5000878;28;20046;-76
2021/08/26 04:37:19;;;;;;;42.17;19.67;;;12.90;99.90;;;;;;4983739;28;20499;-77
2021/08/26 04:39:46;;;;;;;42.72;21.05;;;13.00;99.90;;;;;;4976295;28;20031;-78
2021/08/26 04:42:13;;;;;;;44.25;19.92;;;13.00;99.90;;;;;;4984861;28;20101;-78
2021/08/26 04:44:39;;;;;;;37.67;17.13;;;13.00;99.90;;;;;;4969863;28;20046;-79
2021/08/26 04:47:06;;;;;;;41.95;18.67;;;13.00;99.90;;;;;;4967536;28;20042;-77
2021/08/26 04:49:33;;;;;;;30.63;16.52;;;13.00;99.90;;;;;;4984675;28;20062;-78
2021/08/26 04:52:00;;;;;;;42.42;18.50;;;12.90;99.90;;;;;;5001120;28;20498;-78
2021/08/26 04:54:28;;;;;;;36.05;14.45;;;12.90;99.90;;;;;;4967652;28;20057;-77
2021/08/26 04:56:54;;;;;;;33.65;16.02;;;12.90;99.90;;;;;;4968130;28;20054;-78
2021/08/26 04:59:21;;;;;;;29.33;13.88;;;12.90;99.90;;;;;;4984170;28;20506;-78
2021/08/26 05:01:48;;;;;;;32.88;15.10;;;12.90;99.90;;;;;;4967134;28;20054;-78
2021/08/26 05:04:20;;;;;;;33.75;16.20;;;12.90;99.90;;;;;;4984384;28;20389;-78
2021/08/26 05:06:47;;;;;;;27.50;13.90;;;12.90;99.90;;;;;;4990756;28;20367;-78
2021/08/26 05:09:14;;;;;;;41.75;14.75;;;12.90;99.90;;;;;;4993560;28;20161;-77
2021/08/26 05:11:41;;;;;;;33.35;14.32;;;12.90;99.90;;;;;;4983561;28;20231;-77
2021/08/26 05:14:08;;;;;;;36.42;14.48;;;12.90;99.90;;;;;;4984264;28;20519;-77
2021/08/26 05:16:35;;;;;;;43.15;14.85;;;12.90;99.90;;;;;;4981961;28;20431;-76
2021/08/26 05:19:01;;;;;;;30.80;13.63;;;13.00;99.90;;;;;;4983744;28;20065;-77
2021/08/26 05:21:28;;;;;;;31.30;14.55;;;12.90;99.90;;;;;;4985994;28;20073;-77
2021/08/26 05:23:55;;;;;;;35.20;16.30;;;12.80;99.90;;;;;;4963328;28;20039;-77
2021/08/26 05:26:22;;;;;;;37.60;14.90;;;12.70;99.90;;;;;;4950259;28;20293;-78
2021/08/26 05:28:49;;;;;;;37.80;15.27;;;12.70;99.90;;;;;;4984976;28;20137;-77
2021/08/26 05:31:17;;;;;;;33.65;14.75;;;12.80;99.90;;;;;;4983615;28;20077;-77
2021/08/26 05:33:44;;;;;;;36.95;15.73;;;12.70;99.90;;;;;;4967118;28;20227;-77
2021/08/26 05:36:10;;;;;;;42.15;16.08;;;12.80;99.90;;;;;;4984093;28;20045;-77
2021/08/26 05:38:37;;;;;;;35.47;16.70;;;12.80;99.90;;;;;;5005358;28;20404;-77
2021/08/26 05:41:04;;;;;;;32.08;14.57;;;12.90;99.90;;;;;;5013348;28;20050;-78
2021/08/26 05:43:31;;;;;;;35.00;15.70;;;12.90;99.90;;;;;;4999900;28;20101;-77
2021/08/26 05:45:57;;;;;;;36.10;15.05;;;12.90;99.90;;;;;;4966569;28;20089;-77
2021/08/26 05:48:24;;;;;;;34.95;16.08;;;12.90;99.90;;;;;;4983236;28;20596;-77
2021/08/26 05:50:51;;;;;;;42.70;15.77;;;12.90;99.90;;;;;;4987291;28;20050;-77
2021/08/26 05:53:17;;;;;;;33.28;15.18;;;12.90;99.90;;;;;;4967481;28;20051;-77
2021/08/26 05:55:47;;;;;;;38.40;14.70;;;12.80;99.90;;;;;;4973327;28;20056;-77
2021/08/26 05:58:14;;;;;;;48.40;14.82;;;12.80;99.90;;;;;;4985364;28;20046;-77
2021/08/26 06:00:41;;;;;;;44.67;15.02;;;12.80;99.90;;;;;;4978680;28;20046;-77
2021/08/26 06:03:08;;;;;;;29.27;12.57;;;12.90;99.90;;;;;;4983637;28;20260;-77
2021/08/26 06:05:35;;;;;;;36.15;12.75;;;12.90;99.90;;;;;;4981875;28;20144;-78
2021/08/26 06:08:02;;;;;;;35.92;12.95;;;12.90;99.90;;;;;;4973383;28;20053;-77
2021/08/26 06:10:28;;;;;;;33.97;13.18;;;12.90;99.90;;;;;;4969378;28;20140;-77
2021/08/26 06:12:55;;;;;;;31.40;13.93;;;12.90;99.90;;;;;;4984467;28;20460;-77
2021/08/26 06:15:22;;;;;;;35.38;14.77;;;12.90;99.90;;;;;;4970646;28;20054;-77
2021/08/26 06:17:49;;;;;;;37.15;13.02;;;13.00;99.90;;;;;;4986401;28;20487;-77
2021/08/26 06:20:16;;;;;;;34.38;13.52;;;12.90;99.90;;;;;;4986086;28;20073;-77
2021/08/26 06:22:43;;;;;;;35.05;14.43;;;12.90;99.90;;;;;;4993397;28;20337;-77
2021/08/26 06:25:12;;;;;;;39.25;14.52;;;13.00;99.90;;;;;;4990569;28;20054;-76
2021/08/26 06:27:39;;;;;;;40.05;14.90;;;13.00;99.90;;;;;;4969091;28;20047;-77
2021/08/26 06:30:07;;;;;;;30.00;12.90;;;13.00;99.90;;;;;;4952465;28;20050;-77
2021/08/26 06:32:34;;;;;;;36.72;13.20;;;13.00;99.90;;;;;;4968194;28;20326;-77
2021/08/26 06:35:06;;;;;;;39.42;13.20;;;13.00;99.90;;;;;;4987251;28;20046;-76
2021/08/26 06:37:33;;;;;;;34.45;12.65;;;13.00;99.90;;;;;;5006738;28;20064;-77
2021/08/26 06:39:59;;;;;;;28.33;13.18;;;13.00;99.90;;;;;;5003493;28;20033;-74
2021/08/26 06:42:26;;;;;;;30.88;12.82;;;12.90;99.90;;;;;;4992988;28;20496;-77
2021/08/26 06:44:53;;;;;;;34.97;14.65;;;13.00;99.90;;;;;;5015202;28;20038;-76
2021/08/26 06:47:20;;;;;;;32.50;13.60;;;12.90;99.90;;;;;;4993393;28;20148;-78
2021/08/26 06:49:47;;;;;;;33.03;13.38;;;13.00;99.90;;;;;;4976820;28;20598;-78
2021/08/26 06:52:14;;;;;;;38.30;14.95;;;13.00;99.90;;;;;;4996187;28;20050;-75
2021/08/26 06:54:41;;;;;;;33.90;14.73;;;13.20;99.90;;;;;;4957498;28;20050;-76
2021/08/26 06:57:08;;;;;;;29.40;11.57;;;13.30;99.90;;;;;;4975288;28;20073;-76
2021/08/26 06:59:35;;;;;;;30.13;11.85;;;13.30;99.90;;;;;;4990295;28;20125;-76
2021/08/26 07:02:02;;;;;;;30.40;12.30;;;13.40;99.90;;;;;;4970352;28;20383;-76
2021/08/26 07:04:29;;;;;;;31.67;12.48;;;13.40;99.90;;;;;;4970065;28;20602;-76
2021/08/26 07:06:56;;;;;;;35.88;12.15;;;13.40;99.90;;;;;;4971036;28;20057;-76
2021/08/26 07:09:23;;;;;;;34.42;13.73;;;13.30;99.90;;;;;;4979377;28;20061;-76
2021/08/26 07:11:50;;;;;;;37.50;14.77;;;13.30;99.90;;;;;;4969711;28;20064;-76
2021/08/26 07:14:17;;;;;;;42.85;15.18;;;13.60;99.90;;;;;;5002435;28;20095;-76
2021/08/26 07:16:45;;;;;;;40.97;13.40;;;13.70;99.90;;;;;;5018304;28;20061;-76
2021/08/26 07:19:12;;;;;;;37.58;14.90;;;13.60;99.90;;;;;;4970282;28;20057;-76
2021/08/26 07:21:38;;;;;;;40.70;14.73;;;13.70;99.90;;;;;;4986077;28;20053;-76
2021/08/26 07:24:05;;;;;;;41.95;15.00;;;13.80;99.90;;;;;;4987073;28;20058;-76
2021/08/26 07:26:32;;;;;;;29.80;13.23;;;13.80;99.90;;;;;;4968044;28;20104;-76
2021/08/26 07:28:58;;;;;;;30.80;12.07;;;13.80;99.90;;;;;;4985403;28;20153;-76
2021/08/26 07:31:25;;;;;;;40.55;14.80;;;13.90;99.90;;;;;;4979884;28;20050;-76
2021/08/26 07:33:52;;;;;;;34.05;12.80;;;14.00;99.90;;;;;;5002598;28;20098;-75
2021/08/26 07:36:19;;;;;;;31.40;12.55;;;14.10;99.90;;;;;;4967829;28;20073;-75
2021/08/26 07:38:46;;;;;;;29.60;12.52;;;14.20;99.90;;;;;;4990850;28;20086;-74
2021/08/26 07:41:12;;;;;;;31.90;13.00;;;14.20;99.90;;;;;;5003519;28;20589;-75
2021/08/26 07:43:39;;;;;;;29.92;11.13;;;14.30;99.90;;;;;;4989064;28;20113;-75
2021/08/26 07:46:06;;;;;;;33.72;11.73;;;14.30;99.90;;;;;;4991135;28;20112;-75
2021/08/26 07:48:34;;;;;;;32.38;12.05;;;14.30;99.90;;;;;;4984221;28;20081;-75
2021/08/26 07:51:04;;;;;;;29.83;11.55;;;14.50;99.90;;;;;;4983960;28;20048;-75
2021/08/26 07:53:33;;;;;;;25.40;12.55;;;14.30;99.90;;;;;;4985783;28;20098;-75
2021/08/26 07:56:01;;;;;;;30.70;11.20;;;14.40;99.90;;;;;;4985737;28;20054;-75
2021/08/26 07:58:30;;;;;;;25.90;11.20;;;14.40;99.90;;;;;;4984457;28;20053;-75
2021/08/26 08:01:01;;;;;;;30.45;12.43;;;14.50;99.90;;;;;;4988431;28;20038;-74
2021/08/26 08:03:28;;;;;;;20.20;10.15;;;14.50;99.90;;;;;;4973225;28;20053;-75
2021/08/26 08:05:55;;;;;;;31.98;12.65;;;14.40;99.90;;;;;;4969634;28;20057;-75
2021/08/26 08:08:21;;;;;;;25.50;10.82;;;14.50;99.90;;;;;;4993948;28;20052;-75
2021/08/26 08:10:48;;;;;;;38.50;11.82;;;14.50;99.90;;;;;;4971843;28;20526;-75
2021/08/26 08:13:15;;;;;;;19.60;9.23;;;14.70;99.90;;;;;;4986119;28;20042;-75
2021/08/26 08:15:44;;;;;;;26.77;11.05;;;14.80;99.90;;;;;;4968618;28;20683;-75
2021/08/26 08:18:13;;;;;;;28.10;8.70;;;14.80;99.90;;;;;;5001878;28;20502;-75
2021/08/26 08:20:41;;;;;;;26.27;8.82;;;15.00;99.90;;;;;;5018532;28;20073;-75
2021/08/26 08:23:09;;;;;;;20.50;7.55;;;15.00;99.90;;;;;;4985229;28;20054;-75
2021/08/26 08:25:36;;;;;;;23.88;8.88;;;15.00;99.90;;;;;;4985198;28;20070;-76
2021/08/26 08:28:12;;;;;;;18.00;7.95;;;15.30;99.90;;;;;;4986742;28;20085;-75
2021/08/26 08:30:40;;;;;;;26.83;9.30;;;15.40;99.90;;;;;;4998366;28;20049;-75
2021/08/26 08:33:06;;;;;;;18.60;8.77;;;15.40;99.90;;;;;;4985421;28;20562;-76
2021/08/26 08:35:33;;;;;;;20.77;7.72;;;15.30;99.90;;;;;;4957182;28;20061;-76
2021/08/26 08:38:00;;;;;;;23.23;9.35;;;15.20;99.90;;;;;;4989544;28;20454;-76
2021/08/26 08:40:27;;;;;;;24.00;9.77;;;15.00;99.90;;;;;;4979873;28;20058;-76
2021/08/26 08:42:54;;;;;;;28.27;9.05;;;15.00;99.90;;;;;;4969957;28;20466;-76
2021/08/26 08:45:22;;;;;;;20.63;8.43;;;15.10;99.90;;;;;;4985283;28;20081;-76
2021/08/26 08:47:50;;;;;;;24.00;9.05;;;15.10;99.90;;;;;;4986025;28;20058;-76
2021/08/26 08:50:23;;;;;;;27.65;9.90;;;15.00;99.90;;;;;;4969004;28;20712;-76
2021/08/26 08:52:50;;;;;;;26.95;10.55;;;15.00;99.90;;;;;;4965142;28;20043;-75
2021/08/26 08:55:17;;;;;;;20.60;8.40;;;15.00;99.90;;;;;;4950704;28;20043;-76
2021/08/26 08:57:44;;;;;;;23.58;8.20;;;15.00;99.90;;;;;;4950936;28;20056;-76
2021/08/26 09:00:13;;;;;;;30.23;10.05;;;15.10;99.90;;;;;;4948291;28;20043;-76
2021/08/26 09:02:41;;;;;;;30.70;9.55;;;15.10;99.90;;;;;;4966008;28;20050;-76
2021/08/26 09:05:08;;;;;;;22.48;9.45;;;15.20;99.90;;;;;;4964456;28;20503;-76
2021/08/26 09:07:37;;;;;;;23.35;9.32;;;15.20;99.90;;;;;;4965045;28;20043;-76
2021/08/26 09:10:05;;;;;;;22.92;8.90;;;15.30;99.90;;;;;;4951518;28;20043;-76
2021/08/26 09:12:44;;;;;;;19.90;7.97;;;15.40;99.90;;;;;;4966067;28;20392;-76
2021/08/26 09:15:11;;;;;;;26.98;9.35;;;15.50;99.90;;;;;;4948980;28;20327;-76
2021/08/26 09:17:38;;;;;;;22.50;8.40;;;15.60;99.90;;;;;;4964896;28;20471;-76
2021/08/26 09:20:07;;;;;;;22.08;7.70;;;15.50;99.90;;;;;;4947046;28;20038;-76
2021/08/26 09:22:34;;;;;;;24.40;9.38;;;15.40;99.90;;;;;;4948375;28;20059;-76
2021/08/26 09:25:03;;;;;;;21.67;8.02;;;15.50;99.90;;;;;;4949039;28;20145;-76
2021/08/26 09:27:35;;;;;;;18.08;8.00;;;15.60;99.90;;;;;;4974949;28;20445;-76
2021/08/26 09:30:02;;;;;;;20.80;7.80;;;15.70;99.90;;;;;;4980323;28;20055;-77
2021/08/26 09:32:46;;;;;;;28.40;8.20;;;15.70;99.90;;;;;;4965136;28;20138;-76
2021/08/26 09:35:18;;;;;;;20.13;8.00;;;15.80;99.90;;;;;;4929790;28;20051;-76
2021/08/26 09:37:49;;;;;;;22.20;9.57;;;15.70;99.90;;;;;;4966589;28;20175;-76
2021/08/26 09:40:20;;;;;;;20.83;8.25;;;15.70;99.90;;;;;;4953852;28;20050;-76
2021/08/26 09:42:59;;;;;;;21.02;8.48;;;15.70;99.90;;;;;;4935442;28;20043;-77
2021/08/26 09:45:31;;;;;;;28.92;8.35;;;15.70;99.90;;;;;;4933919;28;20062;-77
2021/08/26 09:48:09;;;;;;;22.67;8.23;;;15.70;99.90;;;;;;4966386;28;20459;-77
2021/08/26 09:50:47;;;;;;;21.38;8.15;;;15.80;99.90;;;;;;4968342;28;20050;-77
2021/08/26 09:53:17;;;;;;;26.58;10.02;;;15.70;99.90;;;;;;4968541;28;20043;-78
2021/08/26 09:56:02;;;;;;;23.70;8.93;;;15.80;99.90;;;;;;4969571;28;20042;-77
2021/08/26 09:58:31;;;;;;;20.63;7.40;;;15.80;99.90;;;;;;4953628;28;20564;-77
2021/08/26 10:01:21;;;;;;;22.98;7.93;;;15.80;99.90;;;;;;4974399;28;20328;-77
2021/08/26 10:03:50;;;;;;;20.13;9.07;;;16.20;99.90;;;;;;4975091;28;20062;-74
2021/08/26 10:06:18;;;;;;;17.27;8.30;;;16.60;99.90;;;;;;4966923;28;20118;-76
2021/08/26 10:08:48;;;;;;;29.15;9.18;;;16.70;99.90;;;;;;4959673;28;20118;-75
2021/08/26 10:11:18;;;;;;;24.05;9.07;;;16.40;99.90;;;;;;4968937;28;20054;-74
2021/08/26 10:13:47;;;;;;;21.70;9.00;;;16.40;99.90;;;;;;4965973;28;20047;-74
2021/08/26 10:16:15;;;;;;;16.63;7.68;;;16.40;99.90;;;;;;4950768;28;20050;-75
2021/08/26 10:18:42;;;;;;;12.70;6.40;;;16.80;99.90;;;;;;4979695;28;20054;-75
2021/08/26 10:21:10;;;;;;;17.77;6.75;;;16.90;99.90;;;;;;4968179;28;20051;-75
2021/08/26 10:23:38;;;;;;;19.10;7.70;;;16.90;99.90;;;;;;4949730;28;20482;-75
2021/08/26 10:26:10;;;;;;;16.55;7.90;;;16.90;99.90;;;;;;4949978;28;20427;-75
2021/08/26 10:28:41;;;;;;;19.40;6.82;;;16.80;99.90;;;;;;4965389;28;20054;-75
2021/08/26 10:31:25;;;;;;;23.05;7.40;;;16.90;99.90;;;;;;4965645;28;20483;-75
2021/08/26 10:34:07;;;;;;;15.10;7.60;;;17.00;99.90;;;;;;4982119;28;20065;-76
2021/08/26 10:36:45;;;;;;;17.33;6.88;;;17.50;99.90;;;;;;4960615;28;20178;-76
2021/08/26 10:39:24;;;;;;;19.13;7.63;;;18.00;99.90;;;;;;5001226;28;20057;-76
2021/08/26 10:41:51;;;;;;;19.38;7.55;;;18.10;99.90;;;;;;4986098;28;20049;-79
2021/08/26 10:44:18;;;;;;;12.43;7.13;;;18.20;99.90;;;;;;4975761;28;20038;-79
2021/08/26 10:46:48;;;;;;;19.02;7.43;;;18.10;99.90;;;;;;4971807;28;20049;-79
2021/08/26 10:49:17;;;;;;;14.38;5.80;;;18.00;99.90;;;;;;5003251;28;20046;-79
2021/08/26 10:51:46;;;;;;;13.30;6.82;;;17.70;99.90;;;;;;4969334;28;20281;-79
2021/08/26 10:54:31;;;;;;;19.58;6.90;;;17.50;99.90;;;;;;4968268;28;20061;-79
2021/08/26 10:57:17;;;;;;;;;;;17.50;99.90;;;;;;4970208;28;20102;-79
2021/08/26 10:59:44;;;;;;;15.90;6.57;;;17.60;99.90;;;;;;4969603;28;19922;-79
2021/08/26 11:02:40;;;;;;;15.15;7.28;;;17.80;99.90;;;;;;4971045;28;20042;-79
2021/08/26 11:05:33;;;;;;;18.48;7.43;;;17.70;99.90;;;;;;4970873;28;20046;-78
2021/08/26 11:08:00;;;;;;;11.60;6.32;;;17.70;99.90;;;;;;4977345;28;20047;-79
2021/08/26 11:10:28;;;;;;;17.88;6.80;;;17.80;99.90;;;;;;4976624;28;20053;-79
2021/08/26 11:13:32;;;;;;;13.15;6.78;;;17.80;99.90;;;;;;4986015;28;20051;-79
2021/08/26 11:16:29;;;;;;;17.85;7.80;;;17.80;99.90;;;;;;4986851;28;20046;-79
2021/08/26 11:19:19;;;;;;;19.38;7.07;;;17.60;99.90;;;;;;5000575;28;20125;-79
2021/08/26 11:21:46;;;;;;;15.95;7.63;;;17.70;99.90;;;;;;5001052;28;20139;-79
2021/08/26 11:24:16;;;;;;;15.43;6.88;;;17.80;99.90;;;;;;4986974;28;20141;-79
2021/08/26 11:26:50;;;;;;;22.00;7.25;;;17.60;99.90;;;;;;4986334;28;20407;-79
2021/08/26 11:29:17;;;;;;;18.00;7.55;;;17.70;99.90;;;;;;4971960;28;20109;-79
2021/08/26 11:31:45;;;;;;;20.33;7.57;;;18.00;99.90;;;;;;4987382;28;20050;-80
2021/08/26 11:34:13;;;;;;;18.80;8.18;;;17.90;99.90;;;;;;4968989;28;20109;-78
2021/08/26 11:36:40;;;;;;;17.45;7.40;;;17.50;99.90;;;;;;4970390;28;20601;-77
2021/08/26 11:39:12;;;;;;;17.55;8.07;;;17.30;99.90;;;;;;4975613;28;20045;-78
2021/08/26 11:41:40;;;;;;;21.77;9.02;;;17.00;99.90;;;;;;4953613;28;20054;-77
2021/08/26 11:44:14;;;;;;;20.98;8.00;;;16.90;99.90;;;;;;5003512;28;20053;-77
2021/08/26 11:46:41;;;;;;;23.02;8.65;;;16.80;99.90;;;;;;4981921;28;20062;-77
2021/08/26 11:49:08;;;;;;;23.95;8.10;;;16.60;99.90;;;;;;4966928;28;20053;-78
2021/08/26 11:51:36;;;;;;;20.25;7.25;;;16.50;99.90;;;;;;4949566;28;20149;-78
2021/08/26 11:54:18;;;;;;;17.27;7.68;;;16.50;99.90;;;;;;4967181;28;20442;-78
2021/08/26 11:56:47;;;;;;;19.23;7.55;;;16.60;99.90;;;;;;4950961;28;20475;-79
2021/08/26 11:59:24;;;;;;;22.05;8.20;;;16.70;99.90;;;;;;4951329;28;20069;-79
2021/08/26 12:02:14;;;;;;;14.15;7.38;;;16.60;99.90;;;;;;4966349;28;20061;-78
2021/08/26 12:04:42;;;;;;;15.02;6.50;;;16.60;99.90;;;;;;4968221;28;20046;-79
2021/08/26 12:07:08;;;;;;;17.88;7.20;;;16.60;99.90;;;;;;4971830;28;20072;-79
2021/08/26 12:09:37;;;;;;;26.63;8.05;;;16.90;99.90;;;;;;4959595;28;20137;-79
2021/08/26 12:12:12;;;;;;;17.45;6.72;;;17.00;99.90;;;;;;4965027;28;20183;-78
2021/08/26 12:14:39;;;;;;;11.98;6.13;;;17.10;99.90;;;;;;4983446;28;20051;-78
2021/08/26 12:17:20;;;;;;;20.13;6.97;;;17.20;99.90;;;;;;4968351;28;20055;-78
2021/08/26 12:19:49;;;;;;;15.45;8.38;;;17.50;99.90;;;;;;4957635;28;20043;-79
2021/08/26 12:22:20;;;;;;;19.35;6.60;;;17.60;99.90;;;;;;4954016;28;20110;-79
2021/08/26 12:24:58;;;;;;;17.00;7.78;;;17.90;99.90;;;;;;4951435;28;20058;-79
2021/08/26 12:27:28;;;;;;;15.23;7.57;;;18.00;99.90;;;;;;4978400;28;20166;-79
2021/08/26 12:29:56;;;;;;;15.80;7.88;;;18.00;99.90;;;;;;4988027;28;20058;-79
2021/08/26 12:32:23;;;;;;;11.18;6.53;;;17.90;99.90;;;;;;5003446;28;20054;-79
2021/08/26 12:34:50;;;;;;;18.35;7.55;;;17.30;99.90;;;;;;4970723;28;20054;-78
2021/08/26 12:37:18;;;;;;;25.33;9.27;;;16.80;99.90;;;;;;4990195;28;20058;-77
2021/08/26 12:39:47;;;;;;;20.00;8.63;;;16.60;99.90;;;;;;4993918;28;20047;-77
2021/08/26 12:42:21;;;;;;;21.58;9.77;;;16.30;99.90;;;;;;4967989;28;20050;-77
2021/08/26 12:44:48;;;;;;;23.47;9.77;;;16.20;99.90;;;;;;4986725;28;20085;-77